createdAt,value
2023-02-11T00:01:30.508Z,102280.53
2023-02-11T00:04:32.937Z,102275.41
2023-02-11T00:07:35.368Z,102276.41
2023-02-11T00:10:37.833Z,102280.91
2023-02-11T00:13:40.170Z,102274.09
2023-02-11T00:16:42.751Z,102271.34
2023-02-11T00:19:44.976Z,102260.75
2023-02-11T00:22:47.431Z,102252.78
2023-02-11T00:25:49.748Z,102262.25
2023-02-11T00:28:53.428Z,102258.66
2023-02-11T00:31:55.736Z,102260.37
2023-02-11T00:34:59.457Z,102253.16
2023-02-11T00:38:01.585Z,102257.31
2023-02-11T00:41:04.235Z,102254.88
2023-02-11T00:44:06.872Z,102247.63
2023-02-11T00:47:09.306Z,102256.41
2023-02-11T00:50:11.424Z,102253.13
2023-02-11T00:53:13.912Z,102260.41
2023-02-11T00:56:16.172Z,102252.94
2023-02-11T00:59:18.621Z,102251.84
2023-02-11T01:02:20.763Z,102244.72
2023-02-11T01:05:23.244Z,102229.66
2023-02-11T01:08:25.463Z,102227.47
2023-02-11T01:11:27.872Z,102223.94
2023-02-11T01:14:30.124Z,102214.38
2023-02-11T01:17:33.077Z,102210.09
2023-02-11T01:20:35.410Z,102204.81
2023-02-11T01:23:37.985Z,102209.09
2023-02-11T01:26:40.130Z,102200.47
2023-02-11T01:29:42.581Z,102193.19
2023-02-11T01:32:44.773Z,102192.53
2023-02-11T01:35:47.634Z,102188.38
2023-02-11T01:38:49.922Z,102187.47
2023-02-11T01:41:54.742Z,102179.59
2023-02-11T01:44:58.097Z,102190.81
2023-02-11T01:48:02.444Z,102186.75
2023-02-11T01:51:18.243Z,102182.91
2023-02-11T01:54:43.924Z,102186.41
2023-02-11T01:57:51.350Z,102182.56
2023-02-11T02:00:55.014Z,102179.72
2023-02-11T02:04:01.977Z,102177.50
2023-02-11T02:07:11.120Z,102175.38
2023-02-11T02:10:19.169Z,102173.84
2023-02-11T02:13:23.147Z,102168.00
2023-02-11T02:16:33.697Z,102169.66
2023-02-11T02:20:21.708Z,102181.09
2023-02-11T02:23:52.608Z,102175.97
2023-02-11T02:27:12.823Z,102172.41
2023-02-11T02:30:52.995Z,102173.59
2023-02-11T02:34:36.530Z,102175.22
2023-02-11T02:37:51.338Z,102176.56
2023-02-11T02:40:59.365Z,102170.44
2023-02-11T02:44:02.592Z,102173.25
2023-02-11T02:47:04.817Z,102164.75
2023-02-11T02:50:09.706Z,102172.59
2023-02-11T02:53:32.388Z,102172.53
2023-02-11T02:57:08.610Z,102162.72
2023-02-11T03:00:42.210Z,102163.31
2023-02-11T03:04:08.810Z,102153.75
2023-02-11T03:07:27.665Z,102155.87
2023-02-11T03:10:34.264Z,102155.56
2023-02-11T03:13:39.297Z,102155.16
2023-02-11T03:16:45.635Z,102155.03
2023-02-11T03:19:51.733Z,102152.28
2023-02-11T03:22:58.369Z,102143.81
2023-02-11T03:26:08.421Z,102146.22
2023-02-11T03:29:29.020Z,102142.63
2023-02-11T03:32:36.804Z,102144.84
2023-02-11T03:35:45.900Z,102136.69
2023-02-11T03:38:52.352Z,102133.69
2023-02-11T03:41:58.582Z,102135.34
2023-02-11T03:45:09.200Z,102128.34
2023-02-11T03:48:14.546Z,102115.16
2023-02-11T03:51:17.426Z,102114.16
2023-02-11T03:54:26.570Z,102104.09
2023-02-11T03:57:28.792Z,102093.63
2023-02-11T04:00:34.158Z,102090.78
2023-02-11T04:03:36.696Z,102087.69
2023-02-11T04:06:39.257Z,102088.91
2023-02-11T04:09:41.772Z,102084.44
2023-02-11T04:12:43.946Z,102082.62
2023-02-11T04:15:48.801Z,102081.59
2023-02-11T04:18:51.279Z,102079.12
2023-02-11T04:21:53.752Z,102057.28
2023-02-11T04:24:55.984Z,102054.81
2023-02-11T04:27:58.456Z,102062.12
2023-02-11T04:31:00.648Z,102063.94
2023-02-11T04:34:03.140Z,102060.28
2023-02-11T04:37:05.345Z,102064.22
2023-02-11T04:40:08.509Z,102057.94
2023-02-11T04:43:10.696Z,102061.22
2023-02-11T04:46:13.295Z,102059.63
2023-02-11T04:49:16.760Z,102065.03
2023-02-11T04:52:19.298Z,102062.16
2023-02-11T04:55:21.520Z,102053.66
2023-02-11T04:58:24.354Z,102066.06
2023-02-11T05:01:26.643Z,102064.22
2023-02-11T05:04:29.168Z,102060.41
2023-02-11T05:07:31.460Z,102064.34
2023-02-11T05:10:34.458Z,102065.19
2023-02-11T05:13:37.063Z,102067.47
2023-02-11T05:16:39.611Z,102068.59
2023-02-11T05:19:42.137Z,102074.56
2023-02-11T05:22:44.585Z,102072.88
2023-02-11T05:25:46.753Z,102062.47
2023-02-11T05:28:49.189Z,102075.16
2023-02-11T05:31:51.366Z,102064.22
2023-02-11T05:34:53.822Z,102058.88
2023-02-11T05:37:56.031Z,102065.81
2023-02-11T05:40:58.548Z,102050.66
2023-02-11T05:44:00.785Z,102049.00
2023-02-11T05:47:03.395Z,102050.34
2023-02-11T05:50:06.252Z,102050.66
2023-02-11T05:53:08.718Z,102045.94
2023-02-11T05:56:11.616Z,102045.12
2023-02-11T05:59:14.883Z,102041.41
2023-02-11T06:02:17.078Z,102042.91
2023-02-11T06:05:19.968Z,102048.34
2023-02-11T06:08:22.301Z,102057.91
2023-02-11T06:11:24.793Z,102052.09
2023-02-11T06:14:27.410Z,102056.69
2023-02-11T06:17:33.714Z,102060.44
2023-02-11T06:20:36.074Z,102059.59
2023-02-11T06:23:39.179Z,102057.41
2023-02-11T06:26:41.409Z,102056.87
2023-02-11T06:29:43.860Z,102049.53
2023-02-11T06:32:46.427Z,102043.06
2023-02-11T06:35:49.637Z,102036.56
2023-02-11T06:38:53.311Z,102040.75
2023-02-11T06:41:55.715Z,102048.72
2023-02-11T06:44:57.901Z,102050.28
2023-02-11T06:48:00.360Z,102044.22
2023-02-11T06:51:07.137Z,102037.44
2023-02-11T06:54:11.243Z,102031.44
2023-02-11T06:57:13.431Z,102029.41
2023-02-11T07:00:16.381Z,102027.88
2023-02-11T07:03:18.635Z,102033.94
2023-02-11T07:06:24.722Z,102028.72
2023-02-11T07:09:26.883Z,102028.34
2023-02-11T07:12:29.518Z,102022.72
2023-02-11T07:15:31.797Z,102022.12
2023-02-11T07:18:34.467Z,102031.47
2023-02-11T07:21:36.666Z,102035.50
2023-02-11T07:24:39.175Z,102026.53
2023-02-11T07:27:41.365Z,102034.31
2023-02-11T07:30:43.831Z,102032.12
2023-02-11T07:33:46.513Z,102031.97
2023-02-11T07:36:49.298Z,102034.66
2023-02-11T07:39:51.472Z,102032.19
2023-02-11T07:42:53.891Z,102034.19
2023-02-11T07:45:56.094Z,102025.84
2023-02-11T07:48:58.502Z,102023.13
2023-02-11T07:52:00.648Z,102024.06
2023-02-11T07:55:04.883Z,102003.63
2023-02-11T07:58:07.138Z,102012.69
2023-02-11T08:01:18.653Z,102002.87
2023-02-11T08:04:21.248Z,102016.41
2023-02-11T08:07:23.403Z,102009.03
2023-02-11T08:10:25.798Z,102007.00
2023-02-11T08:13:27.980Z,102013.56
2023-02-11T08:16:35.450Z,102010.88
2023-02-11T08:19:38.853Z,102003.31
2023-02-11T08:22:41.296Z,102005.56
2023-02-11T08:25:43.478Z,102006.19
2023-02-11T08:28:48.070Z,102006.37
2023-02-11T08:31:50.288Z,102008.84
2023-02-11T08:34:53.269Z,102008.03
2023-02-11T08:37:55.496Z,102006.56
2023-02-11T08:41:00.660Z,102009.87
2023-02-11T08:44:03.036Z,102011.28
2023-02-11T08:47:05.463Z,102012.72
2023-02-11T08:50:08.043Z,102011.09
2023-02-11T08:53:10.587Z,102000.63
2023-02-11T08:56:14.430Z,101999.81
2023-02-11T08:59:17.744Z,101999.19
2023-02-11T09:02:20.020Z,102008.63
2023-02-11T09:05:23.163Z,102008.19
2023-02-11T09:08:25.282Z,102005.75
2023-02-11T09:11:30.962Z,102001.41
2023-02-11T09:14:33.254Z,101996.88
2023-02-11T09:17:35.683Z,101983.50
2023-02-11T09:20:37.807Z,101988.72
2023-02-11T09:23:43.504Z,101994.41
2023-02-11T09:26:45.667Z,101984.88
2023-02-11T09:29:48.153Z,101980.09
2023-02-11T09:32:50.279Z,101975.97
2023-02-11T09:35:52.716Z,101971.56
2023-02-11T09:38:55.379Z,101968.28
2023-02-11T09:42:18.348Z,101977.28
2023-02-11T09:45:29.522Z,101965.72
2023-02-11T09:48:40.788Z,101973.09
2023-02-11T09:51:49.989Z,101958.81
2023-02-11T09:54:58.834Z,101955.91
2023-02-11T09:58:05.127Z,101959.84
2023-02-11T10:01:28.944Z,101948.44
2023-02-11T10:05:13.358Z,101952.16
2023-02-11T10:08:50.707Z,101947.63
2023-02-11T10:12:04.482Z,101952.28
2023-02-11T10:15:06.532Z,101950.47
2023-02-11T10:18:17.958Z,101947.19
2023-02-11T10:21:20.063Z,101935.75
2023-02-11T10:24:22.496Z,101942.97
2023-02-11T10:27:30.723Z,101932.94
2023-02-11T10:30:38.872Z,101922.94
2023-02-11T10:33:58.242Z,101926.53
2023-02-11T10:37:00.727Z,101908.94
2023-02-11T10:40:03.268Z,101920.34
2023-02-11T10:43:10.523Z,101920.59
2023-02-11T10:46:19.460Z,101911.16
2023-02-11T10:49:46.018Z,101906.97
2023-02-11T10:52:48.637Z,101895.69
2023-02-11T10:55:57.277Z,101888.66
2023-02-11T10:59:06.012Z,101884.63
2023-02-11T11:02:31.980Z,101885.69
2023-02-11T11:05:47.117Z,101877.78
2023-02-11T11:08:51.617Z,101868.34
2023-02-11T11:11:53.923Z,101869.62
2023-02-11T11:14:59.922Z,101857.03
2023-02-11T11:18:28.113Z,101855.50
2023-02-11T11:21:40.643Z,101850.63
2023-02-11T11:24:46.685Z,101851.75
2023-02-11T11:27:51.204Z,101839.00
2023-02-11T11:30:55.892Z,101845.91
2023-02-11T11:34:00.940Z,101835.91
2023-02-11T11:37:22.056Z,101824.91
2023-02-11T11:40:27.932Z,101843.00
2023-02-11T11:43:30.221Z,101821.78
2023-02-11T11:46:35.864Z,101810.25
2023-02-11T11:49:40.894Z,101806.37
2023-02-11T11:53:03.989Z,101807.47
2023-02-11T11:56:13.184Z,101800.19
2023-02-11T11:59:17.078Z,101805.47
2023-02-11T12:02:50.627Z,101796.53
2023-02-11T12:06:25.028Z,101784.88
2023-02-11T12:09:51.751Z,101780.31
2023-02-11T12:13:17.563Z,101775.59
2023-02-11T12:16:25.312Z,101759.88
2023-02-11T12:19:46.389Z,101761.28
2023-02-11T12:23:28.989Z,101733.59
2023-02-11T12:26:57.894Z,101722.69
2023-02-11T12:30:18.342Z,101721.19
2023-02-11T12:33:53.768Z,101715.06
2023-02-11T12:37:27.170Z,101703.78
2023-02-11T12:40:46.313Z,101706.72
2023-02-11T12:43:49.772Z,101698.69
2023-02-11T12:47:08.377Z,101700.97
2023-02-11T12:50:25.382Z,101711.22
2023-02-11T12:54:10.819Z,101708.34
2023-02-11T12:57:26.557Z,101696.59
2023-02-11T13:00:42.004Z,101685.34
2023-02-11T13:03:54.241Z,101677.41
2023-02-11T13:07:02.263Z,101661.03
2023-02-11T13:10:07.611Z,101669.34
2023-02-11T13:13:31.612Z,101672.66
2023-02-11T13:16:42.682Z,101672.62
2023-02-11T13:19:52.858Z,101670.41
2023-02-11T13:23:22.823Z,101667.56
2023-02-11T13:26:45.607Z,101659.72
2023-02-11T13:30:25.440Z,101652.00
2023-02-11T13:33:34.202Z,101647.78
2023-02-11T13:36:36.400Z,101645.72
2023-02-11T13:39:39.366Z,101638.25
2023-02-11T13:42:52.237Z,101641.00
2023-02-11T13:46:00.554Z,101637.28
2023-02-11T13:49:02.833Z,101639.34
2023-02-11T13:52:18.379Z,101640.16
2023-02-11T13:55:23.811Z,101637.72
2023-02-11T13:58:28.967Z,101646.56
2023-02-11T14:01:39.421Z,101643.16
2023-02-11T14:05:31.748Z,101646.00
2023-02-11T14:08:52.433Z,101648.62
2023-02-11T14:12:31.504Z,101648.81
2023-02-11T14:15:40.489Z,101640.13
2023-02-11T14:18:49.227Z,101618.41
2023-02-11T14:21:51.412Z,101618.22
2023-02-11T14:25:01.450Z,101617.69
2023-02-11T14:28:17.348Z,101635.44
2023-02-11T14:31:26.232Z,101639.75
2023-02-11T14:34:51.718Z,101647.37
2023-02-11T14:38:00.207Z,101655.94
2023-02-11T14:41:25.399Z,101651.38
2023-02-11T14:44:31.250Z,101660.06
2023-02-11T14:47:46.758Z,101653.72
2023-02-11T14:51:00.550Z,101648.84
2023-02-11T14:54:24.893Z,101644.25
2023-02-11T14:57:28.079Z,101652.41
2023-02-11T15:00:30.503Z,101637.84
2023-02-11T15:03:36.249Z,101633.97
2023-02-11T15:06:49.723Z,101622.50
2023-02-11T15:09:54.165Z,101622.50
2023-02-11T15:12:57.471Z,101617.56
2023-02-11T15:16:09.288Z,101616.00
2023-02-11T15:19:28.397Z,101621.06
2023-02-11T15:22:36.503Z,101610.22
2023-02-11T15:25:51.173Z,101605.84
2023-02-11T15:28:53.680Z,101591.81
2023-02-11T15:32:23.152Z,101601.22
2023-02-11T15:35:32.386Z,101600.34
2023-02-11T15:38:34.574Z,101595.16
2023-02-11T15:41:38.699Z,101593.22
2023-02-11T15:44:41.344Z,101592.91
2023-02-11T15:47:53.727Z,101586.84
2023-02-11T15:51:00.206Z,101583.91
2023-02-11T15:54:08.938Z,101572.25
2023-02-11T15:57:11.733Z,101568.75
2023-02-11T16:00:17.189Z,101572.72
2023-02-11T16:03:25.349Z,101578.53
2023-02-11T16:06:36.978Z,101580.91
2023-02-11T16:09:39.819Z,101579.19
2023-02-11T16:12:54.727Z,101570.09
2023-02-11T16:16:02.452Z,101568.50
2023-02-11T16:19:06.442Z,101559.00
2023-02-11T16:22:14.879Z,101561.34
2023-02-11T16:25:20.599Z,101563.94
2023-02-11T16:28:23.102Z,101544.91
2023-02-11T16:31:42.150Z,101544.12
2023-02-11T16:34:44.573Z,101537.63
2023-02-11T16:37:46.716Z,101543.97
2023-02-11T16:40:50.043Z,101558.28
2023-02-11T16:43:52.392Z,101559.34
2023-02-11T16:46:58.445Z,101560.78
2023-02-11T16:50:02.221Z,101576.00
2023-02-11T16:53:06.436Z,101558.59
2023-02-11T16:56:16.055Z,101559.66
2023-02-11T16:59:18.553Z,101544.47
2023-02-11T17:02:26.062Z,101543.50
2023-02-11T17:05:28.475Z,101544.47
2023-02-11T17:08:30.614Z,101545.94
2023-02-11T17:11:33.068Z,101552.66
2023-02-11T17:14:35.239Z,101555.34
2023-02-11T17:17:37.762Z,101550.91
2023-02-11T17:20:40.474Z,101549.75
2023-02-11T17:23:43.112Z,101556.66
2023-02-11T17:26:46.270Z,101550.72
2023-02-11T17:29:48.792Z,101558.22
2023-02-11T17:32:51.007Z,101556.50
2023-02-11T17:35:53.933Z,101570.13
2023-02-11T17:38:56.525Z,101565.50
2023-02-11T17:41:58.979Z,101566.78
2023-02-11T17:45:01.161Z,101576.94
2023-02-11T17:48:03.828Z,101575.31
2023-02-11T17:51:20.470Z,101568.09
2023-02-11T17:54:23.029Z,101564.41
2023-02-11T17:57:25.158Z,101563.19
2023-02-11T18:00:28.363Z,101554.25
2023-02-11T18:03:30.892Z,101562.28
2023-02-11T18:06:36.191Z,101554.00
2023-02-11T18:09:40.445Z,101539.69
2023-02-11T18:12:42.836Z,101528.97
2023-02-11T18:15:45.247Z,101523.31
2023-02-11T18:18:47.611Z,101523.44
2023-02-11T18:21:50.918Z,101523.91
2023-02-11T18:24:54.665Z,101524.56
2023-02-11T18:27:57.089Z,101519.28
2023-02-11T18:31:00.179Z,101521.16
2023-02-11T18:34:05.759Z,101521.16
2023-02-11T18:37:08.275Z,101521.63
2023-02-11T18:40:11.491Z,101520.66
2023-02-11T18:43:14.351Z,101516.56
2023-02-11T18:46:17.268Z,101515.19
2023-02-11T18:49:20.180Z,101532.50
2023-02-11T18:52:22.696Z,101533.97
2023-02-11T18:55:25.907Z,101524.09
2023-02-11T18:58:28.385Z,101516.00
2023-02-11T19:01:33.033Z,101517.87
2023-02-11T19:04:37.324Z,101524.09
2023-02-11T19:07:39.713Z,101516.06
2023-02-11T19:10:44.451Z,101521.56
2023-02-11T19:13:47.837Z,101539.59
2023-02-11T19:16:52.795Z,101531.19
2023-02-11T19:19:55.014Z,101526.78
2023-02-11T19:22:57.436Z,101528.91
2023-02-11T19:25:59.631Z,101540.81
2023-02-11T19:29:02.285Z,101550.69
2023-02-11T19:32:08.579Z,101545.44
2023-02-11T19:35:11.064Z,101540.38
2023-02-11T19:38:15.672Z,101543.72
2023-02-11T19:41:23.055Z,101550.56
2023-02-11T19:44:25.252Z,101528.44
2023-02-11T19:47:27.892Z,101543.91
2023-02-11T19:50:30.219Z,101547.22
2023-02-11T19:53:32.595Z,101541.25
2023-02-11T19:59:12.028Z,101550.81
2023-02-11T20:02:14.598Z,101543.72
2023-02-11T20:05:17.091Z,101540.44
2023-02-11T20:08:19.203Z,101536.16
2023-02-11T20:11:21.594Z,101528.59
2023-02-11T20:14:26.159Z,101529.75
2023-02-11T20:17:29.985Z,101528.50
2023-02-11T20:20:32.214Z,101516.28
2023-02-11T20:23:35.717Z,101518.47
2023-02-11T20:26:40.824Z,101507.28
2023-02-11T20:29:43.208Z,101511.34
2023-02-11T20:32:45.409Z,101512.97
2023-02-11T20:35:56.854Z,101519.59
2023-02-11T20:38:59.660Z,101514.91
2023-02-11T20:42:01.965Z,101510.25
2023-02-11T20:45:04.316Z,101509.91
2023-02-11T20:48:06.752Z,101490.75
2023-02-11T20:51:11.650Z,101485.91
2023-02-11T20:54:17.634Z,101474.91
2023-02-11T20:57:19.810Z,101466.78
2023-02-11T21:00:22.261Z,101471.09
2023-02-11T21:03:24.516Z,101476.38
2023-02-11T21:06:31.207Z,101484.97
2023-02-11T21:09:33.622Z,101472.69
2023-02-11T21:12:36.105Z,101475.69
2023-02-11T21:15:38.259Z,101479.50
2023-02-11T21:18:40.688Z,101472.59
2023-02-11T21:21:43.113Z,101478.59
2023-02-11T21:24:45.604Z,101471.03
2023-02-11T21:27:47.722Z,101478.53
2023-02-11T21:30:50.579Z,101473.63
2023-02-11T21:33:54.986Z,101471.97
2023-02-11T21:36:57.406Z,101487.00
2023-02-11T21:39:59.587Z,101483.00
2023-02-11T21:43:01.988Z,101462.88
2023-02-11T21:46:13.105Z,101463.94
2023-02-11T21:49:15.581Z,101449.25
2023-02-11T21:52:17.680Z,101457.25
2023-02-11T21:55:20.150Z,101483.09
2023-02-11T21:58:22.776Z,101465.19
2023-02-11T22:01:27.765Z,101462.06
2023-02-11T22:04:30.825Z,101454.88
2023-02-11T22:07:35.468Z,101467.69
2023-02-11T22:10:38.912Z,101439.59
2023-02-11T22:13:41.415Z,101456.00
2023-02-11T22:16:45.265Z,101457.22
2023-02-11T22:19:47.397Z,101460.97
2023-02-11T22:22:50.727Z,101470.53
2023-02-11T22:25:53.102Z,101474.94
2023-02-11T22:28:56.370Z,101487.56
2023-02-11T22:31:58.677Z,101496.09
2023-02-11T22:35:01.202Z,101489.41
2023-02-11T22:38:04.381Z,101481.97
2023-02-11T22:41:10.216Z,101486.91
2023-02-11T22:44:13.283Z,101497.13
2023-02-11T22:47:15.671Z,101487.72
2023-02-11T22:50:17.853Z,101485.28
2023-02-11T22:53:20.313Z,101488.38
2023-02-11T22:56:23.735Z,101469.56
2023-02-11T22:59:26.191Z,101491.22
2023-02-11T23:02:28.376Z,101488.53
2023-02-11T23:05:30.854Z,101470.19
2023-02-11T23:08:33.670Z,101476.78
2023-02-11T23:11:36.443Z,101479.62
2023-02-11T23:14:38.540Z,101503.53
2023-02-11T23:17:40.937Z,101489.38
2023-02-11T23:20:43.893Z,101496.28
2023-02-11T23:23:46.657Z,101498.06
2023-02-11T23:26:49.146Z,101509.47
2023-02-11T23:29:51.531Z,101497.09
2023-02-11T23:32:53.731Z,101492.72
2023-02-11T23:35:56.363Z,101493.78
2023-02-11T23:38:58.710Z,101497.50
2023-02-11T23:42:01.212Z,101496.44
2023-02-11T23:45:03.520Z,101521.00
2023-02-11T23:48:05.982Z,101501.66
2023-02-11T23:51:09.783Z,101486.12
2023-02-11T23:54:13.822Z,101481.56
2023-02-11T23:57:16.004Z,101478.00
